createdAt,value
2023-04-12T00:00:10.791Z,2.70
2023-04-12T00:02:40.528Z,2.03
2023-04-12T00:05:11.594Z,1.80
2023-04-12T00:07:40.137Z,2.00
2023-04-12T00:10:10.326Z,2.30
2023-04-12T00:12:40.873Z,1.70
2023-04-12T00:15:10.303Z,2.03
2023-04-12T00:17:38.633Z,2.00
2023-04-12T00:20:12.154Z,1.97
2023-04-12T00:22:41.581Z,2.37
2023-04-12T00:25:10.234Z,1.73
2023-04-12T00:27:40.659Z,1.97
2023-04-12T00:30:09.712Z,2.00
2023-04-12T00:32:38.032Z,1.73
2023-04-12T00:35:07.004Z,1.90
2023-04-12T00:37:36.319Z,1.90
2023-04-12T00:40:07.006Z,1.90
2023-04-12T00:42:36.051Z,2.03
2023-04-12T00:45:06.903Z,2.13
2023-04-12T00:47:36.863Z,1.90
2023-04-12T00:50:06.023Z,2.63
2023-04-12T00:52:35.573Z,2.13
2023-04-12T00:55:05.113Z,2.03
2023-04-12T00:57:36.624Z,1.93
2023-04-12T01:00:08.360Z,2.13
2023-04-12T01:02:39.439Z,1.97
2023-04-12T01:05:14.703Z,1.93
2023-04-12T01:07:54.311Z,1.80
2023-04-12T01:10:36.189Z,2.10
2023-04-12T01:13:13.662Z,1.80
2023-04-12T01:15:54.601Z,1.80
2023-04-12T01:18:28.086Z,2.00
2023-04-12T01:21:04.881Z,1.77
2023-04-12T01:23:48.491Z,2.37
2023-04-12T01:26:34.466Z,2.40
2023-04-12T01:29:11.944Z,2.17
2023-04-12T01:31:42.252Z,2.00
2023-04-12T01:34:12.902Z,1.83
2023-04-12T01:36:43.785Z,2.47
2023-04-12T01:39:12.350Z,2.57
2023-04-12T01:41:45.604Z,2.07
2023-04-12T01:44:19.050Z,2.23
2023-04-12T01:46:48.209Z,2.43
2023-04-12T01:49:18.780Z,2.70
2023-04-12T01:51:54.431Z,2.00
2023-04-12T01:54:27.410Z,2.53
2023-04-12T01:56:59.178Z,2.13
2023-04-12T01:59:33.626Z,2.17
2023-04-12T02:02:03.562Z,2.20
2023-04-12T02:04:35.284Z,2.20
2023-04-12T02:07:04.040Z,2.30
2023-04-12T02:09:37.052Z,2.27
2023-04-12T02:12:07.086Z,2.57
2023-04-12T02:14:36.976Z,2.77
2023-04-12T02:17:05.904Z,2.80
2023-04-12T02:19:34.661Z,2.30
2023-04-12T02:22:04.529Z,2.13
2023-04-12T02:24:32.948Z,2.47
2023-04-12T02:27:01.445Z,2.30
2023-04-12T02:29:31.314Z,2.90
2023-04-12T02:32:01.027Z,2.17
2023-04-12T02:34:34.305Z,2.10
2023-04-12T02:37:13.735Z,2.33
2023-04-12T02:39:42.032Z,1.93
2023-04-12T02:42:11.077Z,2.20
2023-04-12T02:44:41.998Z,2.47
2023-04-12T02:47:15.972Z,2.40
2023-04-12T02:49:48.284Z,2.33
2023-04-12T02:52:19.098Z,2.40
2023-04-12T02:55:01.584Z,2.50
2023-04-12T02:57:30.317Z,2.70
2023-04-12T02:59:58.733Z,2.43
2023-04-12T03:02:35.676Z,2.50
2023-04-12T03:05:07.475Z,2.30
2023-04-12T03:07:41.445Z,2.70
2023-04-12T03:10:12.806Z,2.80
2023-04-12T03:12:49.782Z,2.90
2023-04-12T03:15:20.238Z,2.97
2023-04-12T03:17:51.294Z,3.00
2023-04-12T03:20:24.544Z,3.07
2023-04-12T03:23:04.152Z,3.40
2023-04-12T03:25:34.681Z,3.33
2023-04-12T03:28:20.144Z,3.70
2023-04-12T03:30:51.655Z,3.43
2023-04-12T03:33:24.346Z,4.13
2023-04-12T03:35:56.765Z,3.80
2023-04-12T03:38:25.812Z,3.30
2023-04-12T03:40:55.720Z,4.17
2023-04-12T03:43:35.853Z,3.37
2023-04-12T03:46:07.928Z,3.57
2023-04-12T03:48:37.862Z,3.77
2023-04-12T03:51:08.718Z,3.40
2023-04-12T03:53:40.526Z,2.67
2023-04-12T03:56:12.628Z,3.37
2023-04-12T03:58:41.005Z,2.90
2023-04-12T04:01:10.439Z,3.10
2023-04-12T04:03:41.165Z,2.57
2023-04-12T04:06:20.327Z,2.90
2023-04-12T04:08:48.811Z,2.40
2023-04-12T04:11:17.423Z,2.57
2023-04-12T04:13:50.978Z,2.40
2023-04-12T04:16:21.524Z,3.37
2023-04-12T04:18:53.390Z,2.73
2023-04-12T04:21:23.873Z,2.63
2023-04-12T04:23:58.761Z,2.80
2023-04-12T04:26:33.344Z,3.50
2023-04-12T04:29:22.238Z,2.50
2023-04-12T04:31:50.880Z,2.50
2023-04-12T04:34:22.323Z,2.90
2023-04-12T04:36:57.624Z,3.00
2023-04-12T04:39:31.851Z,2.97
2023-04-12T04:42:00.967Z,2.50
2023-04-12T04:44:51.168Z,2.40
2023-04-12T04:47:19.460Z,2.53
2023-04-12T04:49:49.825Z,2.80
2023-04-12T04:52:26.635Z,2.63
2023-04-12T04:55:00.102Z,2.97
2023-04-12T04:57:34.800Z,3.30
2023-04-12T05:00:11.012Z,3.57
2023-04-12T05:02:42.960Z,4.63
2023-04-12T05:05:16.975Z,3.83
2023-04-12T05:07:47.421Z,5.37
2023-04-12T05:10:16.684Z,4.10
2023-04-12T05:12:45.556Z,4.93
2023-04-12T05:15:16.097Z,4.67
2023-04-12T05:17:45.187Z,4.27
2023-04-12T05:20:13.566Z,4.80
2023-04-12T05:22:43.158Z,5.03
2023-04-12T05:25:11.704Z,4.83
2023-04-12T05:27:52.016Z,5.47
2023-04-12T05:30:21.646Z,4.17
2023-04-12T05:32:51.038Z,5.13
2023-04-12T05:35:20.918Z,5.10
2023-04-12T05:37:51.963Z,4.17
2023-04-12T05:40:20.341Z,4.67
2023-04-12T05:42:52.299Z,5.33
2023-04-12T05:45:20.949Z,5.20
2023-04-12T05:47:49.585Z,4.70
2023-04-12T05:50:18.462Z,5.57
2023-04-12T05:52:48.596Z,4.93
2023-04-12T05:55:18.665Z,4.43
2023-04-12T05:57:47.676Z,4.20
2023-04-12T06:00:19.302Z,4.00
2023-04-12T06:02:50.702Z,3.60
2023-04-12T06:05:19.959Z,3.93
2023-04-12T06:07:48.973Z,4.07
2023-04-12T06:10:19.386Z,4.13
2023-04-12T06:12:53.368Z,4.10
2023-04-12T06:15:22.358Z,4.27
2023-04-12T06:17:55.776Z,4.30
2023-04-12T06:20:24.053Z,4.43
2023-04-12T06:22:52.711Z,4.50
2023-04-12T06:25:23.324Z,3.97
2023-04-12T06:27:52.505Z,4.37
2023-04-12T06:30:22.264Z,4.63
2023-04-12T06:32:53.834Z,4.63
2023-04-12T06:35:23.665Z,4.00
2023-04-12T06:37:51.964Z,3.40
2023-04-12T06:40:20.502Z,3.80
2023-04-12T06:42:50.091Z,3.53
2023-04-12T06:45:23.458Z,3.93
2023-04-12T06:47:51.761Z,4.00
2023-04-12T06:50:19.964Z,3.97
2023-04-12T06:52:48.893Z,3.40
2023-04-12T06:55:17.446Z,4.00
2023-04-12T06:57:46.226Z,4.47
2023-04-12T07:00:16.689Z,4.07
2023-04-12T07:02:45.110Z,3.90
2023-04-12T07:05:13.478Z,3.53
2023-04-12T07:07:41.709Z,4.40
2023-04-12T07:10:10.707Z,4.63
2023-04-12T07:12:39.002Z,3.97
2023-04-12T07:15:07.936Z,4.20
2023-04-12T07:17:37.670Z,4.80
2023-04-12T07:20:07.053Z,3.80
2023-04-12T07:22:35.306Z,4.20
2023-04-12T07:25:05.188Z,3.97
2023-04-12T07:27:33.420Z,4.27
2023-04-12T07:30:01.702Z,3.93
2023-04-12T07:32:30.243Z,3.93
2023-04-12T07:34:59.866Z,4.53
2023-04-12T07:37:28.107Z,3.80
2023-04-12T07:39:56.382Z,3.57
2023-04-12T07:42:25.177Z,3.73
2023-04-12T07:44:53.444Z,4.40
2023-04-12T07:47:21.720Z,4.33
2023-04-12T07:49:50.108Z,3.90
2023-04-12T07:52:20.013Z,4.00
2023-04-12T07:54:48.361Z,4.20
2023-04-12T07:57:16.681Z,3.33
2023-04-12T07:59:44.941Z,4.67
2023-04-12T08:02:13.342Z,4.10
2023-04-12T08:04:44.516Z,3.53
2023-04-12T08:07:12.816Z,3.87
2023-04-12T08:09:42.484Z,4.20
2023-04-12T08:12:11.577Z,3.60
2023-04-12T08:14:40.873Z,3.90
2023-04-12T08:17:09.473Z,4.10
2023-04-12T08:19:37.952Z,4.03
2023-04-12T08:22:06.230Z,4.83
2023-04-12T08:24:34.470Z,4.33
2023-04-12T08:27:04.126Z,4.20
2023-04-12T08:29:32.463Z,4.00
2023-04-12T08:32:01.550Z,5.53
2023-04-12T08:34:29.792Z,3.90
2023-04-12T08:37:00.322Z,4.03
2023-04-12T08:39:28.658Z,3.90
2023-04-12T08:41:58.499Z,4.73
2023-04-12T08:44:38.036Z,4.60
2023-04-12T08:47:07.492Z,4.70
2023-04-12T08:49:36.276Z,4.97
2023-04-12T08:52:06.710Z,4.80
2023-04-12T08:54:35.365Z,4.50
2023-04-12T08:57:06.470Z,4.90
2023-04-12T08:59:39.527Z,4.97
2023-04-12T09:02:07.867Z,4.70
2023-04-12T09:04:48.592Z,4.13
2023-04-12T09:07:17.382Z,4.47
2023-04-12T09:09:46.420Z,4.20
2023-04-12T09:12:15.851Z,3.87
2023-04-12T09:14:45.986Z,3.33
2023-04-12T09:17:25.027Z,3.43
2023-04-12T09:19:55.087Z,3.83
2023-04-12T09:22:34.974Z,3.20
2023-04-12T09:25:03.622Z,3.43
2023-04-12T09:27:46.279Z,3.33
2023-04-12T09:30:17.759Z,2.97
2023-04-12T09:32:49.292Z,3.17
2023-04-12T09:35:18.107Z,3.23
2023-04-12T09:37:46.384Z,3.40
2023-04-12T09:40:15.178Z,2.90
2023-04-12T09:42:53.466Z,3.90
2023-04-12T09:45:25.761Z,2.80
2023-04-12T09:47:55.091Z,2.90
2023-04-12T09:50:24.680Z,2.70
2023-04-12T09:52:54.559Z,3.00
2023-04-12T09:55:24.226Z,3.33
2023-04-12T09:57:54.224Z,3.23
2023-04-12T10:00:27.041Z,3.60
2023-04-12T10:02:57.832Z,4.23
2023-04-12T10:05:27.937Z,3.60
2023-04-12T10:07:59.193Z,3.77
2023-04-12T10:10:31.789Z,4.03
2023-04-12T10:13:02.194Z,4.10
2023-04-12T10:15:35.162Z,3.63
2023-04-12T10:18:08.202Z,4.37
2023-04-12T10:20:37.559Z,5.37
2023-04-12T10:23:07.806Z,4.40
2023-04-12T10:25:36.300Z,3.63
2023-04-12T10:28:15.662Z,3.60
2023-04-12T10:30:45.758Z,3.63
2023-04-12T10:33:20.725Z,3.10
2023-04-12T10:35:57.615Z,3.57
2023-04-12T10:38:27.347Z,3.23
2023-04-12T10:41:16.303Z,3.07
2023-04-12T10:43:45.864Z,3.03
2023-04-12T10:46:54.479Z,3.00
2023-04-12T10:49:24.015Z,2.80
2023-04-12T10:52:14.950Z,2.60
2023-04-12T10:54:43.402Z,2.40
2023-04-12T10:57:47.203Z,2.80
2023-04-12T11:00:16.933Z,2.30
2023-04-12T11:03:12.512Z,2.90
2023-04-12T11:06:12.678Z,2.20
2023-04-12T11:09:07.401Z,2.70
2023-04-12T11:11:37.812Z,2.83
2023-04-12T11:14:06.513Z,2.93
2023-04-12T11:16:34.886Z,3.37
2023-04-12T11:19:04.577Z,2.13
2023-04-12T11:21:32.899Z,2.30
2023-04-12T11:24:01.920Z,1.93
2023-04-12T11:26:32.114Z,1.50
2023-04-12T11:29:07.866Z,2.70
2023-04-12T11:31:39.427Z,2.03
2023-04-12T11:34:09.173Z,2.03
2023-04-12T11:36:37.700Z,1.27
2023-04-12T11:39:06.100Z,1.27
2023-04-12T11:41:34.339Z,2.23
2023-04-12T11:44:02.685Z,1.40
2023-04-12T11:46:35.487Z,1.60
2023-04-12T11:49:03.896Z,2.10
2023-04-12T11:51:35.075Z,1.93
2023-04-12T11:54:04.445Z,1.30
2023-04-12T11:56:32.968Z,1.80
2023-04-12T11:59:01.434Z,1.97
2023-04-12T12:01:31.909Z,2.70
2023-04-12T12:04:00.981Z,2.07
2023-04-12T12:06:30.525Z,1.50
2023-04-12T12:09:00.451Z,1.80
2023-04-12T12:11:29.232Z,1.27
2023-04-12T12:13:58.163Z,1.10
2023-04-12T12:16:28.069Z,1.23
2023-04-12T12:18:57.298Z,1.20
2023-04-12T12:21:27.287Z,1.40
2023-04-12T12:23:57.951Z,1.07
2023-04-12T12:26:29.199Z,1.50
2023-04-12T12:29:00.368Z,1.20
2023-04-12T12:31:29.349Z,1.20
2023-04-12T12:33:58.752Z,1.77
2023-04-12T12:36:33.718Z,1.40
2023-04-12T12:39:08.055Z,1.53
2023-04-12T12:41:38.080Z,1.30
2023-04-12T12:44:07.907Z,1.67
2023-04-12T12:46:51.690Z,1.80
2023-04-12T12:49:22.394Z,1.50
2023-04-12T12:51:51.909Z,2.00
2023-04-12T12:54:38.852Z,1.70
2023-04-12T12:57:10.536Z,1.63
2023-04-12T12:59:38.945Z,1.93
2023-04-12T13:02:07.581Z,1.60
2023-04-12T13:04:36.414Z,4.43
2023-04-12T13:07:04.767Z,5.17
2023-04-12T13:09:33.520Z,6.00
2023-04-12T13:12:02.429Z,5.57
2023-04-12T13:14:32.061Z,4.77
2023-04-12T13:17:00.343Z,4.13
2023-04-12T13:19:28.670Z,4.10
2023-04-12T13:21:57.309Z,3.20
2023-04-12T13:24:25.787Z,3.10
2023-04-12T13:26:54.465Z,1.60
2023-04-12T13:29:22.697Z,1.10
2023-04-12T13:31:52.466Z,0.90
2023-04-12T13:34:20.726Z,1.43
2023-04-12T13:36:49.072Z,1.37
2023-04-12T13:39:17.282Z,1.37
2023-04-12T13:41:47.077Z,1.23
2023-04-12T13:44:15.392Z,1.30
2023-04-12T13:46:43.627Z,1.10
2023-04-12T13:49:13.247Z,1.20
2023-04-12T13:51:41.527Z,1.37
2023-04-12T13:54:09.747Z,1.33
2023-04-12T13:56:37.982Z,1.30
2023-04-12T13:59:06.231Z,1.10
2023-04-12T14:01:34.481Z,1.40
2023-04-12T14:04:04.003Z,2.10
2023-04-12T14:06:34.414Z,1.30
2023-04-12T14:09:02.641Z,2.30
2023-04-12T14:11:30.868Z,1.90
2023-04-12T14:13:59.104Z,1.50
2023-04-12T14:16:27.351Z,1.60
2023-04-12T14:18:55.828Z,1.73
2023-04-12T14:21:29.007Z,2.17
2023-04-12T14:23:58.836Z,1.90
2023-04-12T14:26:27.410Z,1.83
2023-04-12T14:28:55.742Z,1.55
2023-04-12T14:31:24.344Z,1.40
2023-04-12T14:33:53.487Z,1.70
2023-04-12T14:36:21.777Z,1.85
2023-04-12T14:38:50.908Z,2.23
2023-04-12T14:41:20.669Z,1.13
2023-04-12T14:43:49.851Z,1.60
2023-04-12T14:46:18.738Z,0.90
2023-04-12T14:48:47.084Z,0.80
2023-04-12T14:51:15.485Z,0.90
2023-04-12T14:53:55.354Z,1.20
2023-04-12T14:56:30.182Z,1.13
2023-04-12T14:58:59.464Z,1.38
2023-04-12T15:01:28.725Z,1.60
2023-04-12T15:03:57.238Z,1.30
2023-04-12T15:06:27.228Z,0.88
2023-04-12T15:08:55.559Z,1.20
2023-04-12T15:11:27.247Z,1.13
2023-04-12T15:13:56.334Z,1.70
2023-04-12T15:16:24.838Z,1.30
2023-04-12T15:18:53.067Z,1.35
2023-04-12T15:21:21.404Z,1.48
2023-04-12T15:23:50.470Z,1.40
2023-04-12T15:26:18.840Z,1.63
2023-04-12T15:28:48.520Z,1.40
2023-04-12T15:31:16.845Z,1.20
2023-04-12T15:33:46.652Z,1.77
2023-04-12T15:36:16.712Z,2.00
2023-04-12T15:38:44.951Z,1.80
2023-04-12T15:41:13.233Z,1.53
2023-04-12T15:43:42.129Z,1.40
2023-04-12T15:46:15.018Z,1.43
2023-04-12T15:48:43.340Z,1.70
2023-04-12T15:51:11.593Z,1.10
2023-04-12T15:53:42.313Z,0.90
2023-04-12T15:56:13.676Z,0.90
2023-04-12T15:58:43.192Z,1.67
2023-04-12T16:01:12.980Z,1.20
2023-04-12T16:03:42.866Z,1.00
2023-04-12T16:06:12.320Z,1.00
2023-04-12T16:08:40.621Z,0.90
2023-04-12T16:11:12.151Z,1.00
2023-04-12T16:13:41.877Z,1.00
2023-04-12T16:16:12.823Z,1.00
2023-04-12T16:18:43.143Z,1.17
2023-04-12T16:21:16.312Z,1.30
2023-04-12T16:23:45.273Z,1.17
2023-04-12T16:26:14.169Z,1.07
2023-04-12T16:28:42.920Z,1.10
2023-04-12T16:31:11.434Z,1.20
2023-04-12T16:33:39.733Z,1.07
2023-04-12T16:36:09.519Z,1.30
2023-04-12T16:38:37.844Z,1.00
2023-04-12T16:41:06.481Z,1.20
2023-04-12T16:43:34.699Z,1.50
2023-04-12T16:46:05.908Z,1.30
2023-04-12T16:48:35.528Z,1.30
2023-04-12T16:51:04.837Z,1.30
2023-04-12T16:53:34.507Z,1.60
2023-04-12T16:56:02.985Z,1.48
2023-04-12T16:58:31.685Z,1.70
2023-04-12T17:00:59.949Z,1.13
2023-04-12T17:03:29.020Z,1.67
2023-04-12T17:05:57.833Z,1.20
2023-04-12T17:08:26.167Z,1.30
2023-04-12T17:10:55.924Z,1.40
2023-04-12T17:13:24.277Z,1.47
2023-04-12T17:15:52.799Z,1.50
2023-04-12T17:18:21.507Z,1.20
2023-04-12T17:20:49.864Z,1.27
2023-04-12T17:23:18.119Z,1.20
2023-04-12T17:25:46.657Z,1.17
2023-04-12T17:28:16.370Z,1.10
2023-04-12T17:30:44.952Z,1.07
2023-04-12T17:33:13.216Z,1.13
2023-04-12T17:35:41.610Z,1.00
2023-04-12T17:38:09.922Z,1.00
2023-04-12T17:40:38.468Z,1.07
2023-04-12T17:43:06.666Z,1.03
2023-04-12T17:45:36.341Z,1.30
2023-04-12T17:48:05.285Z,1.10
2023-04-12T17:50:33.676Z,1.30
2023-04-12T17:53:01.995Z,1.23
2023-04-12T17:55:30.605Z,1.83
2023-04-12T17:57:58.865Z,1.10
2023-04-12T18:00:27.356Z,1.40
2023-04-12T18:02:57.953Z,1.40
2023-04-12T18:05:26.344Z,1.30
2023-04-12T18:07:57.036Z,1.50
2023-04-12T18:10:27.394Z,1.00
2023-04-12T18:12:55.693Z,1.27
2023-04-12T18:15:23.939Z,1.10
2023-04-12T18:17:52.225Z,1.33
2023-04-12T18:20:22.094Z,1.30
2023-04-12T18:22:50.402Z,1.10
2023-04-12T18:25:18.776Z,1.20
2023-04-12T18:27:48.458Z,1.37
2023-04-12T18:30:17.653Z,1.10
2023-04-12T18:32:46.553Z,0.90
2023-04-12T18:35:15.333Z,1.07
2023-04-12T18:37:45.304Z,1.00
2023-04-12T18:40:16.042Z,0.90
2023-04-12T18:42:45.403Z,1.53
2023-04-12T18:45:14.417Z,1.20
2023-04-12T18:47:42.670Z,1.60
2023-04-12T18:50:11.515Z,1.20
2023-04-12T18:52:39.932Z,1.40
2023-04-12T18:55:10.061Z,1.87
2023-04-12T18:57:38.502Z,1.30
2023-04-12T19:00:13.551Z,1.20
2023-04-12T19:02:42.118Z,1.53
2023-04-12T19:05:11.122Z,1.43
2023-04-12T19:07:39.383Z,1.67
2023-04-12T19:10:10.210Z,1.57
2023-04-12T19:12:38.572Z,1.17
2023-04-12T19:15:08.922Z,1.43
2023-04-12T19:17:39.031Z,1.50
2023-04-12T19:20:09.006Z,1.30
2023-04-12T19:22:37.285Z,1.50
2023-04-12T19:25:06.246Z,2.43
2023-04-12T19:27:35.902Z,1.67
2023-04-12T19:30:04.545Z,1.70
2023-04-12T19:32:32.899Z,1.40
2023-04-12T19:35:01.176Z,1.20
2023-04-12T19:37:33.936Z,1.50
2023-04-12T19:40:02.493Z,1.63
2023-04-12T19:42:30.719Z,1.40
2023-04-12T19:45:01.598Z,2.20
2023-04-12T19:47:29.920Z,1.33
2023-04-12T19:49:58.849Z,2.13
2023-04-12T19:52:28.401Z,1.30
2023-04-12T19:54:57.212Z,1.30
2023-04-12T19:57:25.603Z,1.50
2023-04-12T19:59:53.856Z,1.43
2023-04-12T20:02:24.654Z,1.40
2023-04-12T20:04:53.421Z,1.30
2023-04-12T20:07:21.711Z,1.37
2023-04-12T20:09:49.937Z,1.10
2023-04-12T20:12:19.276Z,1.50
2023-04-12T20:14:48.337Z,1.20
2023-04-12T20:17:16.587Z,1.30
2023-04-12T20:19:46.880Z,1.07
2023-04-12T20:22:15.388Z,0.97
2023-04-12T20:24:43.672Z,1.37
2023-04-12T20:27:16.708Z,0.90
2023-04-12T20:29:46.657Z,0.90
2023-04-12T20:32:15.336Z,1.20
2023-04-12T20:34:46.699Z,0.90
2023-04-12T20:37:17.446Z,1.37
2023-04-12T20:39:45.732Z,1.10
2023-04-12T20:42:16.430Z,1.27
2023-04-12T20:44:44.645Z,1.07
2023-04-12T20:47:13.183Z,1.20
2023-04-12T20:49:42.367Z,0.90
2023-04-12T20:52:11.090Z,1.00
2023-04-12T20:54:41.577Z,1.10
2023-04-12T20:57:10.564Z,1.10
2023-04-12T20:59:38.815Z,1.00
2023-04-12T21:02:07.160Z,0.90
2023-04-12T21:04:36.472Z,1.00
2023-04-12T21:07:05.523Z,0.90
2023-04-12T21:09:34.057Z,0.90
2023-04-12T21:12:06.149Z,0.80
2023-04-12T21:14:35.569Z,1.40
2023-04-12T21:17:04.982Z,0.80
2023-04-12T21:19:33.283Z,1.00
2023-04-12T21:22:01.952Z,0.80
2023-04-12T21:24:31.000Z,1.00
2023-04-12T21:26:59.938Z,1.00
2023-04-12T21:29:31.930Z,0.87
2023-04-12T21:32:02.158Z,1.30
2023-04-12T21:34:32.561Z,1.13
2023-04-12T21:37:04.229Z,0.73
2023-04-12T21:39:33.005Z,0.80
2023-04-12T21:42:01.649Z,0.80
2023-04-12T21:44:31.959Z,0.90
2023-04-12T21:47:00.198Z,0.90
2023-04-12T21:49:30.109Z,1.07
2023-04-12T21:51:59.205Z,1.00
2023-04-12T21:54:29.039Z,1.20
2023-04-12T21:56:58.298Z,0.90
2023-04-12T21:59:26.667Z,1.00
2023-04-12T22:01:56.280Z,1.07
2023-04-12T22:04:24.557Z,1.00
2023-04-12T22:06:52.982Z,1.10
2023-04-12T22:09:21.235Z,1.03
2023-04-12T22:11:50.190Z,1.30
2023-04-12T22:14:18.440Z,1.20
2023-04-12T22:16:46.836Z,0.80
2023-04-12T22:19:17.184Z,0.73
2023-04-12T22:21:48.504Z,1.10
2023-04-12T22:24:17.530Z,0.90
2023-04-12T22:26:45.780Z,0.97
2023-04-12T22:29:17.433Z,0.83
2023-04-12T22:31:47.046Z,1.20
2023-04-12T22:34:17.026Z,1.00
2023-04-12T22:36:47.299Z,1.13
2023-04-12T22:39:16.441Z,1.20
2023-04-12T22:41:49.710Z,0.80
2023-04-12T22:44:18.435Z,1.30
2023-04-12T22:46:48.212Z,1.20
2023-04-12T22:49:19.977Z,1.20
2023-04-12T22:51:48.329Z,1.20
2023-04-12T22:54:17.511Z,1.20
2023-04-12T22:56:46.264Z,1.30
2023-04-12T22:59:15.319Z,1.73
2023-04-12T23:01:44.704Z,1.40
2023-04-12T23:04:13.246Z,1.50
2023-04-12T23:06:44.593Z,1.53
2023-04-12T23:09:13.943Z,1.40
2023-04-12T23:11:42.874Z,2.33
2023-04-12T23:14:11.215Z,1.57
2023-04-12T23:16:44.169Z,1.77
2023-04-12T23:19:14.473Z,1.83
2023-04-12T23:21:44.854Z,1.50
2023-04-12T23:24:15.560Z,1.20
2023-04-12T23:26:45.224Z,2.13
2023-04-12T23:29:13.776Z,1.50
2023-04-12T23:31:42.334Z,1.43
2023-04-12T23:34:10.646Z,2.20
2023-04-12T23:36:39.085Z,1.63
2023-04-12T23:39:09.665Z,1.83
2023-04-12T23:41:40.740Z,2.07
2023-04-12T23:44:09.270Z,2.30
2023-04-12T23:46:37.560Z,2.50
2023-04-12T23:49:05.845Z,1.97
2023-04-12T23:51:34.133Z,2.37
2023-04-12T23:54:02.354Z,2.40
2023-04-12T23:56:32.190Z,2.10
2023-04-12T23:59:00.535Z,2.10
